createdAt,value
2023-06-22T00:00:16.289Z,23.30
2023-06-22T00:02:44.063Z,23.20
2023-06-22T00:05:11.843Z,23.20
2023-06-22T00:07:39.544Z,23.20
2023-06-22T00:10:08.073Z,23.10
2023-06-22T00:12:35.831Z,23.10
2023-06-22T00:15:03.727Z,23.10
2023-06-22T00:17:32.868Z,23.00
2023-06-22T00:20:01.224Z,23.00
2023-06-22T00:22:30.443Z,22.90
2023-06-22T00:24:58.594Z,22.90
2023-06-22T00:27:26.407Z,22.90
2023-06-22T00:29:54.187Z,22.90
2023-06-22T00:32:22.046Z,22.90
2023-06-22T00:34:51.492Z,22.90
2023-06-22T00:37:19.657Z,22.90
2023-06-22T00:39:47.447Z,22.80
2023-06-22T00:42:15.235Z,22.80
2023-06-22T00:44:43.225Z,22.80
2023-06-22T00:47:11.006Z,22.80
2023-06-22T00:49:39.917Z,22.80
2023-06-22T00:52:10.192Z,22.80
2023-06-22T00:54:38.400Z,22.80
2023-06-22T00:57:06.258Z,22.80
2023-06-22T00:59:34.622Z,22.70
2023-06-22T01:02:02.401Z,22.80
2023-06-22T01:04:36.357Z,22.70
2023-06-22T01:07:09.640Z,22.80
2023-06-22T01:09:43.248Z,22.70
2023-06-22T01:12:11.917Z,22.80
2023-06-22T01:14:41.821Z,22.70
2023-06-22T01:17:10.815Z,22.70
2023-06-22T01:19:43.680Z,22.70
2023-06-22T01:22:13.599Z,22.70
2023-06-22T01:24:50.064Z,22.60
2023-06-22T01:27:26.579Z,22.70
2023-06-22T01:30:01.258Z,22.60
2023-06-22T01:32:30.443Z,22.60
2023-06-22T01:34:59.152Z,22.60
2023-06-22T01:37:27.074Z,22.70
2023-06-22T01:39:55.990Z,22.60
2023-06-22T01:42:24.364Z,22.60
2023-06-22T01:44:52.449Z,22.50
2023-06-22T01:47:22.191Z,22.50
2023-06-22T01:49:50.533Z,22.50
2023-06-22T01:52:18.297Z,22.50
2023-06-22T01:54:46.609Z,22.40
2023-06-22T01:57:14.383Z,22.40
2023-06-22T01:59:48.625Z,22.40
2023-06-22T02:02:17.614Z,22.40
2023-06-22T02:04:49.815Z,22.40
2023-06-22T02:07:19.213Z,22.30
2023-06-22T02:09:48.916Z,22.30
2023-06-22T02:12:19.397Z,22.40
2023-06-22T02:14:47.492Z,22.40
2023-06-22T02:17:16.111Z,22.30
2023-06-22T02:19:43.860Z,22.30
2023-06-22T02:22:13.646Z,22.30
2023-06-22T02:24:41.420Z,22.30
2023-06-22T02:27:09.389Z,22.30
2023-06-22T02:29:37.173Z,22.30
2023-06-22T02:32:05.252Z,22.20
2023-06-22T02:34:35.137Z,22.20
2023-06-22T02:37:03.542Z,22.20
2023-06-22T02:39:32.659Z,22.20
2023-06-22T02:42:00.468Z,22.20
2023-06-22T02:44:28.223Z,22.10
2023-06-22T02:46:56.327Z,22.10
2023-06-22T02:49:24.078Z,22.10
2023-06-22T02:51:51.986Z,22.10
2023-06-22T02:54:19.763Z,22.10
2023-06-22T02:56:49.219Z,22.10
2023-06-22T02:59:16.950Z,22.00
2023-06-22T03:01:45.036Z,21.90
2023-06-22T03:04:12.826Z,21.90
2023-06-22T03:06:41.901Z,21.90
2023-06-22T03:09:10.078Z,21.90
2023-06-22T03:11:37.842Z,21.90
2023-06-22T03:14:06.966Z,21.90
2023-06-22T03:16:35.119Z,21.90
2023-06-22T03:19:02.933Z,21.80
2023-06-22T03:21:31.039Z,21.80
2023-06-22T03:23:58.761Z,21.80
2023-06-22T03:26:28.021Z,21.80
2023-06-22T03:28:55.886Z,21.80
2023-06-22T03:31:25.119Z,21.80
2023-06-22T03:33:53.002Z,21.70
2023-06-22T03:36:21.062Z,21.70
2023-06-22T03:38:49.460Z,21.70
2023-06-22T03:41:17.552Z,21.60
2023-06-22T03:43:45.612Z,21.70
2023-06-22T03:46:13.595Z,21.70
2023-06-22T03:48:43.128Z,21.60
2023-06-22T03:51:11.105Z,21.60
2023-06-22T03:53:38.996Z,21.60
2023-06-22T03:56:06.950Z,21.60
2023-06-22T03:58:36.519Z,21.60
2023-06-22T04:01:04.457Z,21.60
2023-06-22T04:03:32.463Z,21.60
2023-06-22T04:06:01.841Z,21.60
2023-06-22T04:08:29.738Z,21.60
2023-06-22T04:10:57.719Z,21.60
2023-06-22T04:13:25.761Z,21.60
2023-06-22T04:15:53.750Z,21.70
2023-06-22T04:18:21.720Z,21.60
2023-06-22T04:20:49.863Z,21.60
2023-06-22T04:23:19.133Z,21.60
2023-06-22T04:25:47.086Z,21.60
2023-06-22T04:28:14.965Z,21.60
2023-06-22T04:30:47.598Z,21.70
2023-06-22T04:33:16.127Z,21.70
2023-06-22T04:35:46.576Z,21.70
2023-06-22T04:38:14.672Z,21.70
2023-06-22T04:40:43.964Z,21.70
2023-06-22T04:43:12.113Z,21.70
2023-06-22T04:45:40.050Z,21.70
2023-06-22T04:48:09.522Z,21.70
2023-06-22T04:50:40.017Z,21.70
2023-06-22T04:53:08.548Z,21.80
2023-06-22T04:55:38.932Z,21.80
2023-06-22T04:58:08.256Z,21.80
2023-06-22T05:00:37.438Z,21.80
2023-06-22T05:03:19.194Z,21.90
2023-06-22T05:05:48.084Z,21.90
2023-06-22T05:08:16.762Z,22.00
2023-06-22T05:10:59.095Z,22.00
2023-06-22T05:13:28.970Z,22.00
2023-06-22T05:16:02.810Z,22.00
2023-06-22T05:18:31.450Z,22.10
2023-06-22T05:21:00.415Z,22.10
2023-06-22T05:23:28.488Z,22.20
2023-06-22T05:25:58.781Z,22.20
2023-06-22T05:28:28.522Z,22.20
2023-06-22T05:30:56.710Z,22.30
2023-06-22T05:33:24.700Z,22.30
2023-06-22T05:35:52.672Z,22.30
2023-06-22T05:38:20.586Z,22.40
2023-06-22T05:40:48.513Z,22.40
2023-06-22T05:43:16.463Z,22.50
2023-06-22T05:45:45.773Z,22.50
2023-06-22T05:48:13.788Z,22.50
2023-06-22T05:50:41.751Z,22.50
2023-06-22T05:53:09.656Z,22.60
2023-06-22T05:55:37.667Z,22.60
2023-06-22T05:58:05.719Z,22.60
2023-06-22T06:00:34.106Z,22.70
2023-06-22T06:03:04.942Z,22.70
2023-06-22T06:05:33.206Z,22.80
2023-06-22T06:08:01.633Z,22.80
2023-06-22T06:10:31.165Z,22.90
2023-06-22T06:12:59.452Z,22.90
2023-06-22T06:15:27.407Z,22.90
2023-06-22T06:17:55.704Z,23.00
2023-06-22T06:20:27.179Z,23.00
2023-06-22T06:22:55.457Z,23.00
2023-06-22T06:25:23.415Z,23.10
2023-06-22T06:27:55.442Z,23.10
2023-06-22T06:30:24.031Z,23.20
2023-06-22T06:32:52.466Z,23.20
2023-06-22T06:35:20.604Z,23.20
2023-06-22T06:37:51.293Z,23.30
2023-06-22T06:40:21.008Z,23.30
2023-06-22T06:42:50.644Z,23.40
2023-06-22T06:45:20.319Z,23.40
2023-06-22T06:47:48.847Z,23.50
2023-06-22T06:50:17.212Z,23.50
2023-06-22T06:52:45.154Z,23.50
2023-06-22T06:55:15.141Z,23.60
2023-06-22T06:57:44.260Z,23.60
2023-06-22T07:00:15.181Z,23.70
2023-06-22T07:02:44.399Z,23.70
2023-06-22T07:05:12.675Z,23.80
2023-06-22T07:07:40.809Z,23.80
2023-06-22T07:10:09.544Z,23.80
2023-06-22T07:12:38.951Z,23.90
2023-06-22T07:15:09.752Z,23.90
2023-06-22T07:17:37.993Z,24.00
2023-06-22T07:20:11.664Z,24.00
2023-06-22T07:22:39.939Z,24.10
2023-06-22T07:25:11.018Z,24.20
2023-06-22T07:27:43.769Z,24.20
2023-06-22T07:30:12.889Z,24.30
2023-06-22T07:32:40.815Z,24.30
2023-06-22T07:35:09.511Z,24.40
2023-06-22T07:37:37.491Z,24.50
2023-06-22T07:40:07.581Z,24.50
2023-06-22T07:42:35.984Z,24.60
2023-06-22T07:45:09.014Z,24.60
2023-06-22T07:47:37.438Z,24.70
2023-06-22T07:50:06.697Z,24.70
2023-06-22T07:52:34.812Z,24.80
2023-06-22T07:55:03.250Z,24.90
2023-06-22T07:57:34.919Z,25.00
2023-06-22T08:00:12.324Z,25.50
2023-06-22T08:02:40.607Z,26.20
2023-06-22T08:05:19.939Z,27.00
2023-06-22T08:07:49.499Z,27.70
2023-06-22T08:10:17.924Z,28.40
2023-06-22T08:12:45.923Z,29.00
2023-06-22T08:15:15.314Z,29.50
2023-06-22T08:17:43.353Z,29.90
2023-06-22T08:20:13.614Z,30.30
2023-06-22T08:22:41.990Z,30.60
2023-06-22T08:25:10.936Z,30.90
2023-06-22T08:27:39.282Z,31.00
2023-06-22T08:30:09.443Z,31.20
2023-06-22T08:32:38.744Z,31.40
2023-06-22T08:35:09.329Z,31.60
2023-06-22T08:37:37.820Z,31.70
2023-06-22T08:40:09.021Z,31.90
2023-06-22T08:42:37.235Z,32.00
2023-06-22T08:45:05.882Z,32.00
2023-06-22T08:47:33.922Z,32.00
2023-06-22T08:50:04.633Z,32.00
2023-06-22T08:52:32.748Z,32.00
2023-06-22T08:55:00.721Z,32.20
2023-06-22T08:57:28.915Z,32.20
2023-06-22T08:59:59.644Z,32.20
2023-06-22T09:02:33.067Z,32.20
2023-06-22T09:05:02.497Z,32.20
2023-06-22T09:07:32.049Z,32.20
2023-06-22T09:10:01.338Z,32.30
2023-06-22T09:12:31.938Z,32.40
2023-06-22T09:15:01.321Z,32.50
2023-06-22T09:17:29.642Z,32.70
2023-06-22T09:19:57.942Z,32.80
2023-06-22T09:22:30.126Z,32.90
2023-06-22T09:25:00.831Z,32.90
2023-06-22T09:27:28.989Z,32.80
2023-06-22T09:29:59.392Z,32.90
2023-06-22T09:32:28.296Z,32.90
2023-06-22T09:34:56.381Z,32.90
2023-06-22T09:37:24.392Z,32.90
2023-06-22T09:39:52.475Z,33.00
2023-06-22T09:42:22.152Z,33.10
2023-06-22T09:44:50.160Z,33.20
2023-06-22T09:47:18.220Z,33.40
2023-06-22T09:49:48.703Z,33.40
2023-06-22T09:52:17.823Z,33.30
2023-06-22T09:54:45.885Z,33.40
2023-06-22T09:57:13.968Z,33.40
2023-06-22T09:59:44.510Z,33.60
2023-06-22T10:02:12.645Z,33.60
2023-06-22T10:04:41.508Z,33.70
2023-06-22T10:07:09.898Z,33.70
2023-06-22T10:09:37.874Z,33.80
2023-06-22T10:12:06.212Z,33.90
2023-06-22T10:14:34.274Z,34.00
2023-06-22T10:17:04.526Z,34.10
2023-06-22T10:19:32.569Z,34.30
2023-06-22T10:22:00.650Z,34.50
2023-06-22T10:24:28.635Z,34.70
2023-06-22T10:26:56.610Z,34.70
2023-06-22T10:29:24.660Z,34.80
2023-06-22T10:31:52.636Z,34.70
2023-06-22T10:34:22.039Z,34.60
2023-06-22T10:36:50.071Z,34.60
2023-06-22T10:39:18.135Z,34.70
2023-06-22T10:41:46.207Z,34.70
2023-06-22T10:44:14.653Z,34.70
2023-06-22T10:46:42.599Z,34.70
2023-06-22T10:49:10.557Z,34.60
2023-06-22T10:51:39.953Z,34.80
2023-06-22T10:54:07.932Z,34.80
2023-06-22T10:56:35.933Z,34.90
2023-06-22T10:59:04.004Z,35.00
2023-06-22T11:01:36.881Z,35.20
2023-06-22T11:04:05.996Z,35.20
2023-06-22T11:06:34.173Z,35.20
2023-06-22T11:09:12.313Z,35.30
2023-06-22T11:11:54.592Z,35.30
2023-06-22T11:14:23.410Z,35.50
2023-06-22T11:16:51.429Z,35.60
2023-06-22T11:19:19.474Z,35.50
2023-06-22T11:21:47.576Z,35.70
2023-06-22T11:24:18.303Z,35.70
2023-06-22T11:26:46.348Z,35.60
2023-06-22T11:29:19.622Z,35.70
2023-06-22T11:32:00.387Z,35.70
2023-06-22T11:34:29.164Z,35.70
2023-06-22T11:36:57.150Z,35.70
2023-06-22T11:39:34.248Z,35.70
2023-06-22T11:42:10.154Z,35.80
2023-06-22T11:44:38.137Z,35.80
2023-06-22T11:47:06.716Z,35.80
2023-06-22T11:49:34.799Z,35.70
2023-06-22T11:52:02.882Z,35.80
2023-06-22T11:54:32.212Z,35.80
2023-06-22T11:57:00.240Z,35.80
2023-06-22T11:59:28.239Z,35.70
2023-06-22T12:01:56.375Z,35.60
2023-06-22T12:04:24.372Z,35.50
2023-06-22T12:06:52.494Z,35.40
2023-06-22T12:09:20.462Z,35.40
2023-06-22T12:11:49.793Z,35.30
2023-06-22T12:14:17.797Z,35.30
2023-06-22T12:16:46.108Z,35.20
2023-06-22T12:19:14.126Z,35.20
2023-06-22T12:21:42.545Z,35.20
2023-06-22T12:24:10.638Z,35.30
2023-06-22T12:26:38.633Z,35.30
2023-06-22T12:29:07.991Z,35.30
2023-06-22T12:31:37.991Z,35.30
2023-06-22T12:34:06.050Z,35.30
2023-06-22T12:36:34.076Z,35.20
2023-06-22T12:39:02.061Z,35.10
2023-06-22T12:41:30.220Z,35.10
2023-06-22T12:43:58.329Z,35.00
2023-06-22T12:46:27.735Z,35.00
2023-06-22T12:48:55.722Z,34.50
2023-06-22T12:51:24.303Z,33.90
2023-06-22T12:53:52.508Z,33.40
2023-06-22T12:56:20.542Z,32.90
2023-06-22T12:58:48.561Z,32.50
2023-06-22T13:01:16.662Z,32.10
2023-06-22T13:03:46.049Z,31.80
2023-06-22T13:06:14.062Z,31.50
2023-06-22T13:09:10.657Z,31.40
2023-06-22T13:11:31.164Z,31.10
2023-06-22T13:13:59.406Z,31.10
2023-06-22T13:16:27.303Z,30.90
2023-06-22T13:18:56.698Z,30.80
2023-06-22T13:21:24.706Z,30.70
2023-06-22T13:23:52.730Z,30.70
2023-06-22T13:26:20.833Z,30.60
2023-06-22T13:28:48.867Z,30.60
2023-06-22T13:31:17.006Z,30.60
2023-06-22T13:33:46.716Z,30.60
2023-06-22T13:36:16.035Z,30.70
2023-06-22T13:38:44.013Z,30.70
2023-06-22T13:41:12.197Z,30.70
2023-06-22T13:43:40.282Z,30.90
2023-06-22T13:46:08.274Z,30.90
2023-06-22T13:48:36.286Z,30.90
2023-06-22T13:51:04.446Z,30.90
2023-06-22T13:53:33.769Z,30.90
2023-06-22T13:56:01.873Z,30.90
2023-06-22T13:58:29.923Z,30.90
2023-06-22T14:00:57.964Z,30.90
2023-06-22T14:03:26.086Z,30.90
2023-06-22T14:05:57.505Z,30.90
2023-06-22T14:08:41.310Z,30.90
2023-06-22T14:11:12.555Z,30.80
2023-06-22T14:13:43.366Z,30.90
2023-06-22T14:16:11.478Z,30.80
2023-06-22T14:18:39.460Z,30.80
2023-06-22T14:21:07.489Z,30.80
2023-06-22T14:23:35.508Z,30.80
2023-06-22T14:26:03.502Z,30.80
2023-06-22T14:28:32.947Z,30.80
2023-06-22T14:31:01.027Z,30.70
2023-06-22T14:33:29.038Z,30.70
2023-06-22T14:35:57.082Z,30.70
2023-06-22T14:38:25.122Z,30.60
2023-06-22T14:41:11.975Z,30.60
2023-06-22T14:43:46.826Z,30.70
2023-06-22T14:46:14.981Z,30.70
2023-06-22T14:48:43.165Z,30.70
2023-06-22T14:51:14.366Z,30.70
2023-06-22T14:53:48.515Z,30.80
2023-06-22T14:56:17.123Z,30.80
2023-06-22T14:58:47.918Z,30.80
2023-06-22T15:01:16.593Z,30.90
2023-06-22T15:03:44.646Z,30.90
2023-06-22T15:06:12.913Z,30.80
2023-06-22T15:08:41.476Z,30.80
2023-06-22T15:11:10.090Z,30.80
2023-06-22T15:13:41.478Z,30.80
2023-06-22T15:16:10.976Z,30.70
2023-06-22T15:18:41.888Z,30.80
2023-06-22T15:21:10.021Z,30.80
2023-06-22T15:23:38.117Z,30.90
2023-06-22T15:26:07.179Z,30.90
2023-06-22T15:28:38.243Z,30.90
2023-06-22T15:31:06.600Z,30.80
2023-06-22T15:33:35.971Z,30.80
2023-06-22T15:36:05.293Z,30.80
2023-06-22T15:38:34.732Z,30.80
2023-06-22T15:41:02.916Z,30.80
2023-06-22T15:43:31.011Z,30.70
2023-06-22T15:45:58.948Z,30.70
2023-06-22T15:48:27.010Z,30.70
2023-06-22T15:50:56.389Z,30.70
2023-06-22T15:53:24.475Z,30.70
2023-06-22T15:55:54.004Z,30.70
2023-06-22T15:58:22.456Z,30.60
2023-06-22T16:00:52.445Z,30.60
2023-06-22T16:03:21.730Z,30.50
2023-06-22T16:05:49.873Z,30.50
2023-06-22T16:08:19.285Z,30.50
2023-06-22T16:10:47.416Z,30.40
2023-06-22T16:13:17.286Z,30.30
2023-06-22T16:15:45.394Z,30.30
2023-06-22T16:18:13.572Z,30.20
2023-06-22T16:20:41.739Z,30.20
2023-06-22T16:23:10.192Z,30.10
2023-06-22T16:25:39.615Z,30.10
2023-06-22T16:28:07.735Z,30.00
2023-06-22T16:30:35.864Z,30.00
2023-06-22T16:33:04.333Z,29.90
2023-06-22T16:35:34.080Z,29.90
2023-06-22T16:38:02.244Z,29.80
2023-06-22T16:40:31.107Z,29.80
2023-06-22T16:43:00.911Z,29.80
2023-06-22T16:45:29.069Z,29.90
2023-06-22T16:47:57.082Z,29.80
2023-06-22T16:50:25.266Z,29.80
2023-06-22T16:52:53.315Z,29.80
2023-06-22T16:55:24.299Z,29.80
2023-06-22T16:57:53.450Z,29.70
2023-06-22T17:00:23.986Z,29.70
2023-06-22T17:02:52.980Z,29.70
2023-06-22T17:05:21.628Z,29.60
2023-06-22T17:07:53.700Z,29.60
2023-06-22T17:10:22.911Z,29.60
2023-06-22T17:12:52.851Z,29.60
2023-06-22T17:15:24.469Z,29.60
2023-06-22T17:17:53.744Z,29.60
2023-06-22T17:20:22.028Z,29.50
2023-06-22T17:22:50.549Z,29.50
2023-06-22T17:25:21.055Z,29.50
2023-06-22T17:27:50.333Z,29.40
2023-06-22T17:30:21.771Z,29.40
2023-06-22T17:32:51.741Z,29.40
2023-06-22T17:35:19.982Z,29.40
2023-06-22T17:37:52.104Z,29.30
2023-06-22T17:40:22.025Z,29.30
2023-06-22T17:42:50.164Z,29.30
2023-06-22T17:45:19.330Z,29.20
2023-06-22T17:47:53.427Z,29.20
2023-06-22T17:50:24.476Z,29.20
2023-06-22T17:52:53.707Z,29.10
2023-06-22T17:55:25.088Z,29.10
2023-06-22T17:57:57.712Z,29.00
2023-06-22T18:00:26.072Z,29.00
2023-06-22T18:02:56.441Z,29.00
2023-06-22T18:05:32.204Z,28.90
2023-06-22T18:08:01.456Z,28.90
2023-06-22T18:10:31.539Z,28.80
2023-06-22T18:13:00.837Z,28.80
2023-06-22T18:15:29.972Z,28.70
2023-06-22T18:18:00.873Z,28.70
2023-06-22T18:20:29.874Z,28.60
2023-06-22T18:22:59.640Z,28.50
2023-06-22T18:25:28.950Z,28.50
2023-06-22T18:27:57.234Z,28.40
2023-06-22T18:30:26.389Z,28.30
2023-06-22T18:32:54.311Z,28.30
2023-06-22T18:35:24.094Z,28.60
2023-06-22T18:37:53.112Z,29.00
2023-06-22T18:40:21.494Z,29.30
2023-06-22T18:42:49.984Z,29.80
2023-06-22T18:45:25.310Z,30.20
2023-06-22T18:48:04.631Z,30.50
2023-06-22T18:50:43.631Z,30.80
2023-06-22T18:53:18.650Z,31.00
2023-06-22T18:55:51.815Z,31.20
2023-06-22T18:58:24.798Z,31.30
2023-06-22T19:00:54.241Z,31.40
2023-06-22T19:03:33.080Z,31.40
2023-06-22T19:06:02.619Z,31.40
2023-06-22T19:09:09.120Z,31.40
2023-06-22T19:11:37.117Z,31.60
2023-06-22T19:14:08.712Z,31.60
2023-06-22T19:16:36.838Z,31.50
2023-06-22T19:19:14.276Z,31.50
2023-06-22T19:21:44.000Z,31.40
2023-06-22T19:24:31.598Z,31.40
2023-06-22T19:27:00.172Z,31.30
2023-06-22T19:29:29.200Z,31.30
2023-06-22T19:31:58.429Z,31.20
2023-06-22T19:34:28.119Z,31.10
2023-06-22T19:37:01.084Z,31.00
2023-06-22T19:39:36.897Z,31.00
2023-06-22T19:42:05.136Z,30.90
2023-06-22T19:44:33.202Z,30.90
2023-06-22T19:47:01.189Z,30.80
2023-06-22T19:49:29.179Z,30.70
2023-06-22T19:52:08.163Z,30.60
2023-06-22T19:54:38.328Z,30.50
2023-06-22T19:57:07.311Z,30.40
2023-06-22T19:59:35.263Z,30.30
2023-06-22T20:02:03.317Z,30.20
2023-06-22T20:04:33.272Z,30.10
2023-06-22T20:07:07.633Z,30.00
2023-06-22T20:09:38.264Z,30.00
2023-06-22T20:12:11.362Z,29.40
2023-06-22T20:14:39.330Z,28.90
2023-06-22T20:17:10.495Z,28.60
2023-06-22T20:19:41.852Z,28.20
2023-06-22T20:22:12.636Z,27.80
2023-06-22T20:24:40.664Z,27.50
2023-06-22T20:27:14.178Z,27.40
2023-06-22T20:29:44.716Z,27.20
2023-06-22T20:32:14.164Z,27.10
2023-06-22T20:34:45.952Z,27.00
2023-06-22T20:37:16.364Z,27.00
2023-06-22T20:39:48.521Z,26.90
2023-06-22T20:42:18.506Z,26.90
2023-06-22T20:44:51.049Z,26.80
2023-06-22T20:47:21.103Z,26.70
2023-06-22T20:49:49.428Z,26.60
2023-06-22T20:52:19.011Z,26.50
2023-06-22T20:54:48.374Z,26.50
2023-06-22T20:57:16.384Z,26.50
2023-06-22T20:59:44.344Z,26.40
2023-06-22T21:02:12.485Z,26.30
2023-06-22T21:04:41.111Z,26.20
2023-06-22T21:07:09.166Z,26.10
2023-06-22T21:09:50.791Z,26.10
2023-06-22T21:12:20.000Z,26.10
2023-06-22T21:14:48.070Z,26.00
2023-06-22T21:17:16.076Z,26.00
2023-06-22T21:19:43.988Z,25.90
2023-06-22T21:22:11.993Z,25.90
2023-06-22T21:24:43.537Z,25.80
2023-06-22T21:27:13.012Z,25.80
2023-06-22T21:29:40.942Z,25.80
2023-06-22T21:32:09.807Z,25.70
2023-06-22T21:34:37.770Z,25.80
2023-06-22T21:37:06.331Z,25.70
2023-06-22T21:39:36.506Z,25.70
2023-06-22T21:42:06.482Z,25.70
2023-06-22T21:44:34.434Z,25.70
2023-06-22T21:47:02.347Z,25.70
2023-06-22T21:49:30.301Z,25.80
2023-06-22T21:51:58.328Z,25.80
2023-06-22T21:54:26.355Z,25.80
2023-06-22T21:56:54.369Z,25.80
2023-06-22T21:59:24.929Z,25.70
2023-06-22T22:01:52.927Z,25.60
2023-06-22T22:04:23.335Z,25.60
2023-06-22T22:06:51.891Z,25.50
2023-06-22T22:09:20.811Z,25.40
2023-06-22T22:11:49.091Z,25.30
2023-06-22T22:14:18.124Z,25.20
2023-06-22T22:16:47.525Z,25.30
2023-06-22T22:19:15.944Z,25.20
2023-06-22T22:21:44.642Z,25.20
2023-06-22T22:24:12.754Z,25.10
2023-06-22T22:26:41.124Z,25.10
2023-06-22T22:29:09.044Z,25.00
2023-06-22T22:31:39.504Z,25.00
2023-06-22T22:34:10.875Z,24.90
2023-06-22T22:36:40.273Z,24.90
2023-06-22T22:39:10.191Z,24.80
2023-06-22T22:41:38.243Z,24.80
2023-06-22T22:44:06.386Z,24.70
2023-06-22T22:46:35.286Z,24.60
2023-06-22T22:49:03.517Z,24.60
2023-06-22T22:51:32.810Z,24.60
2023-06-22T22:54:00.892Z,24.60
2023-06-22T22:56:28.846Z,24.60
2023-06-22T22:58:56.722Z,24.50
2023-06-22T23:01:24.668Z,24.50
2023-06-22T23:03:52.666Z,24.50
2023-06-22T23:06:20.688Z,24.50
2023-06-22T23:08:56.728Z,24.50
2023-06-22T23:11:24.839Z,24.50
2023-06-22T23:13:58.247Z,24.50
2023-06-22T23:16:28.425Z,24.50
2023-06-22T23:18:56.500Z,24.50
2023-06-22T23:21:24.536Z,24.50
2023-06-22T23:23:56.461Z,24.50
2023-06-22T23:26:24.786Z,24.50
2023-06-22T23:28:52.691Z,24.40
2023-06-22T23:31:20.670Z,24.40
2023-06-22T23:33:49.222Z,24.50
2023-06-22T23:36:22.180Z,24.40
2023-06-22T23:38:50.134Z,24.40
2023-06-22T23:41:19.368Z,24.30
2023-06-22T23:43:47.332Z,24.40
2023-06-22T23:46:15.339Z,24.40
2023-06-22T23:48:45.665Z,24.40
2023-06-22T23:51:13.919Z,24.40
2023-06-22T23:53:41.918Z,24.40
2023-06-22T23:56:10.228Z,24.40
2023-06-22T23:58:39.540Z,24.40
